Time;durP1;ratioP1;P1;durP2;ratioP2;P2;SDS_P1;SDS_P2;PMS_P1;PMS_P2;Temp;Humidity;BMP_temperature;BMP_pressure;BME280_temperature;BME280_humidity;BME280_pressure;Samples;Min_cycle;Max_cycle;Signal;HPM_P1;HPM_P2
2021/06/05 05:17:34;;;;;;;8.73;3.97;;;;;;;;;;5143496;23;20100;-63
2021/06/05 05:20:01;;;;;;;10.38;4.65;;;;;;;;;;4915246;29;20039;-63
2021/06/05 05:22:27;;;;;;;8.15;4.85;;;;;;;;;;4915579;29;20437;-63
2021/06/05 05:24:53;;;;;;;7.35;4.30;;;;;;;;;;4914962;29;20446;-63
2021/06/05 05:27:20;;;;;;;8.23;4.40;;;;;;;;;;4913192;29;20107;-63
2021/06/05 05:45:21;;;;;;;12.38;4.60;;;;;;;;;;5442370;23;19946;-64
2021/06/05 05:47:48;;;;;;;17.13;4.78;;;;;;;;;;4912802;29;20383;-72
2021/06/05 05:50:15;;;;;;;9.93;5.47;;;;;;;;;;4911472;29;20035;-63
2021/06/05 05:52:41;;;;;;;11.15;4.25;;;;;;;;;;4915239;29;20024;-67
2021/06/05 12:17:30;;;;;;;6.22;2.60;;;;;;;;;;4921552;29;20067;-62
2021/06/05 12:20:05;;;;;;;6.38;2.75;;;;;;;;;;4927724;29;20087;-69
2021/06/05 12:22:32;;;;;;;8.27;2.95;;;;;;;;;;4916504;29;20028;-63
2021/06/05 12:24:59;;;;;;;5.30;2.35;;;;;;;;;;4916454;29;20491;-66
2021/06/05 12:27:31;;;;;;;9.57;2.65;;;;;;;;;;4919288;29;20036;-64
2021/06/05 12:30:23;;;;;;;5.40;2.53;;;;;;;;;;4916712;29;20028;-66
2021/06/05 12:33:08;;;;;;;5.97;2.50;;;;;;;;;;4912819;29;20329;-64
2021/06/05 12:35:37;;;;;;;5.18;2.88;;;;;;;;;;4916104;29;20484;-68
2021/06/05 12:38:05;;;;;;;20.42;8.25;;;;;;;;;;4916650;29;20032;-64
2021/06/05 12:40:37;;;;;;;5.13;3.05;;;;;;;;;;4916260;29;20028;-68
2021/06/05 12:43:04;;;;;;;11.40;2.78;;;;;;;;;;4907502;29;20052;-64
2021/06/05 12:45:33;;;;;;;4.03;2.80;;;;;;;;;;4922184;29;20491;-62
2021/06/05 12:47:59;;;;;;;3.40;2.53;;;;;;;;;;4906885;29;20075;-66
2021/06/05 12:50:27;;;;;;;5.72;2.80;;;;;;;;;;4906608;29;20029;-63
2021/06/05 12:52:53;;;;;;;3.85;2.47;;;;;;;;;;4904738;29;20028;-64
2021/06/05 12:55:23;;;;;;;3.58;2.60;;;;;;;;;;4906689;29;20090;-71
2021/06/05 12:57:52;;;;;;;4.10;2.58;;;;;;;;;;4906742;29;20028;-64
2021/06/05 13:00:23;;;;;;;5.22;2.67;;;;;;;;;;4901669;29;20073;-63
2021/06/05 13:02:51;;;;;;;6.10;2.80;;;;;;;;;;4904942;29;20029;-64
2021/06/05 13:05:17;;;;;;;9.25;2.95;;;;;;;;;;4905899;29;20102;-64
2021/06/05 13:07:43;;;;;;;8.25;3.65;;;;;;;;;;4906207;29;20489;-64
2021/06/05 13:10:15;;;;;;;5.20;2.40;;;;;;;;;;4921750;29;20134;-64
2021/06/05 13:12:41;;;;;;;;;;;;;;;;;;4915685;29;20495;-62
2021/06/05 13:15:12;;;;;;;7.28;2.80;;;;;;;;;;4915156;29;19931;-65
2021/06/05 13:17:39;;;;;;;4.50;2.70;;;;;;;;;;4913822;29;20183;-68
2021/06/05 13:20:10;;;;;;;7.72;2.97;;;;;;;;;;4897112;29;20060;-70
2021/06/05 13:22:37;;;;;;;3.77;2.50;;;;;;;;;;4896331;29;20469;-63
2021/06/05 13:25:03;;;;;;;3.97;2.65;;;;;;;;;;4915510;29;20484;-69
2021/06/05 13:27:29;;;;;;;4.22;2.55;;;;;;;;;;4914588;29;20035;-71
2021/06/05 13:30:12;;;;;;;7.68;2.80;;;;;;;;;;4906726;29;20033;-70
2021/06/05 13:32:43;;;;;;;5.47;2.83;;;;;;;;;;4904154;29;20020;-67
2021/06/05 13:35:14;;;;;;;5.78;2.50;;;;;;;;;;4897098;29;20168;-64
2021/06/05 13:37:59;;;;;;;5.55;2.60;;;;;;;;;;4896874;29;20032;-68
2021/06/05 13:40:25;;;;;;;4.68;2.72;;;;;;;;;;4900731;29;20059;-82
2021/06/05 13:42:52;;;;;;;9.80;3.03;;;;;;;;;;4915638;29;20027;-73
2021/06/05 13:45:29;;;;;;;7.07;2.78;;;;;;;;;;4934429;29;20036;-68
2021/06/05 13:47:55;;;;;;;6.05;2.45;;;;;;;;;;4934089;29;20057;-69
2021/06/05 13:50:24;;;;;;;7.10;3.40;;;;;;;;;;4934093;29;20031;-66
2021/06/05 13:52:50;;;;;;;7.47;3.03;;;;;;;;;;4898258;29;20029;-66
2021/06/05 13:55:28;;;;;;;6.63;3.08;;;;;;;;;;4895690;29;20043;-67
2021/06/05 13:57:55;;;;;;;6.40;2.63;;;;;;;;;;4903776;29;20035;-70
2021/06/05 14:00:22;;;;;;;4.05;2.55;;;;;;;;;;4914244;29;20127;-71
2021/06/05 14:02:48;;;;;;;4.85;2.40;;;;;;;;;;4908654;29;20481;-74
2021/06/05 14:05:15;;;;;;;5.82;3.42;;;;;;;;;;4895815;29;20036;-66
2021/06/05 14:07:42;;;;;;;7.03;2.78;;;;;;;;;;4892057;29;20493;-67
2021/06/05 14:10:08;;;;;;;6.68;2.63;;;;;;;;;;4894929;29;20393;-68
2021/06/05 14:12:36;;;;;;;3.65;2.42;;;;;;;;;;4894920;29;20032;-72
2021/06/05 14:15:02;;;;;;;4.65;2.50;;;;;;;;;;4891498;29;20049;-71
2021/06/05 14:17:28;;;;;;;6.78;2.75;;;;;;;;;;4891612;29;20052;-73
2021/06/05 14:19:54;;;;;;;8.50;3.50;;;;;;;;;;4892800;29;20036;-74
2021/06/05 14:22:21;;;;;;;7.43;3.95;;;;;;;;;;4890846;29;20384;-74
2021/06/05 14:24:47;;;;;;;6.90;2.80;;;;;;;;;;4894943;29;20103;-71
2021/06/05 14:27:13;;;;;;;5.90;2.83;;;;;;;;;;4895796;29;20080;-68
2021/06/05 14:29:40;;;;;;;8.23;3.17;;;;;;;;;;4902377;29;20472;-67
2021/06/05 14:32:06;;;;;;;5.10;2.47;;;;;;;;;;4914516;29;20114;-66
2021/06/05 14:34:32;;;;;;;6.65;3.13;;;;;;;;;;4914075;29;20067;-67
2021/06/05 14:36:59;;;;;;;6.10;2.45;;;;;;;;;;4914411;29;20039;-67
2021/06/05 14:39:25;;;;;;;5.70;2.45;;;;;;;;;;4913809;29;20032;-67
2021/06/05 14:41:52;;;;;;;8.35;3.85;;;;;;;;;;4914050;29;20480;-68
2021/06/05 14:44:18;;;;;;;7.63;2.75;;;;;;;;;;4913604;29;20040;-68
2021/06/05 14:46:45;;;;;;;9.40;2.70;;;;;;;;;;4914577;29;20028;-68
2021/06/05 14:49:11;;;;;;;5.90;2.85;;;;;;;;;;4913250;29;20029;-70
2021/06/05 14:51:37;;;;;;;10.95;3.30;;;;;;;;;;4895935;29;20257;-67
2021/06/05 14:54:04;;;;;;;6.18;2.63;;;;;;;;;;4895729;29;20028;-66
2021/06/05 14:56:30;;;;;;;6.75;2.42;;;;;;;;;;4895520;29;20040;-69
2021/06/05 14:58:56;;;;;;;8.13;2.72;;;;;;;;;;4895157;29;20043;-63
2021/06/05 15:01:22;;;;;;;6.00;2.40;;;;;;;;;;4896263;29;20039;-65
2021/06/05 15:03:49;;;;;;;4.65;2.65;;;;;;;;;;4895642;29;20032;-66
2021/06/05 15:06:15;;;;;;;10.93;5.20;;;;;;;;;;4895320;29;20061;-66
2021/06/05 15:08:41;;;;;;;6.55;2.83;;;;;;;;;;4898487;29;20469;-66
2021/06/05 15:11:07;;;;;;;4.47;3.00;;;;;;;;;;4881801;29;20785;-66
2021/06/05 15:13:33;;;;;;;5.78;2.85;;;;;;;;;;4899371;29;20025;-67
2021/06/05 15:15:59;;;;;;;8.15;2.63;;;;;;;;;;4898436;29;20064;-71
2021/06/05 15:18:25;;;;;;;3.17;2.40;;;;;;;;;;4899201;29;20064;-67
2021/06/05 15:20:52;;;;;;;4.15;2.20;;;;;;;;;;4899191;29;20469;-77
2021/06/05 15:23:18;;;;;;;6.82;2.20;;;;;;;;;;4899008;29;20043;-65
2021/06/05 15:25:45;;;;;;;4.72;2.30;;;;;;;;;;4898829;29;20024;-66
2021/06/05 15:28:12;;;;;;;6.50;2.25;;;;;;;;;;4899040;29;20108;-66
2021/06/05 15:30:40;;;;;;;3.75;2.30;;;;;;;;;;4898818;29;20107;-76
2021/06/05 15:33:07;;;;;;;6.13;2.03;;;;;;;;;;4898666;29;20041;-76
2021/06/05 15:35:34;;;;;;;5.68;2.13;;;;;;;;;;4898569;29;20485;-65
2021/06/05 15:38:00;;;;;;;5.70;2.47;;;;;;;;;;4898659;29;20025;-72
2021/06/05 15:40:28;;;;;;;4.25;2.40;;;;;;;;;;4898793;29;20105;-66
2021/06/05 15:42:54;;;;;;;5.47;2.30;;;;;;;;;;4898559;29;20021;-65
2021/06/05 15:45:24;;;;;;;4.97;2.47;;;;;;;;;;4898291;29;20123;-75
2021/06/05 15:47:50;;;;;;;7.43;2.60;;;;;;;;;;4898612;29;20063;-66
2021/06/05 15:50:17;;;;;;;7.20;2.22;;;;;;;;;;4898480;29;20024;-75
2021/06/05 15:52:43;;;;;;;7.68;2.42;;;;;;;;;;4898709;29;20102;-66
2021/06/05 15:55:10;;;;;;;7.68;2.47;;;;;;;;;;4897563;29;20052;-74
2021/06/05 15:57:36;;;;;;;4.97;2.30;;;;;;;;;;4898447;29;20040;-77
2021/06/05 16:00:05;;;;;;;5.22;2.28;;;;;;;;;;4898489;29;20025;-79
2021/06/05 16:02:31;;;;;;;6.43;2.55;;;;;;;;;;4898357;29;20031;-75
2021/06/05 16:04:57;;;;;;;5.20;2.30;;;;;;;;;;4897891;29;20032;-71
2021/06/05 16:07:23;;;;;;;9.00;2.50;;;;;;;;;;4898576;29;20104;-77
2021/06/05 16:09:50;;;;;;;4.82;2.33;;;;;;;;;;4880932;29;20036;-69
2021/06/05 16:12:16;;;;;;;6.35;2.20;;;;;;;;;;4898006;29;20076;-79
2021/06/05 16:14:42;;;;;;;5.50;2.33;;;;;;;;;;4897575;29;20119;-76
2021/06/05 16:17:08;;;;;;;7.45;3.70;;;;;;;;;;4897719;29;20041;-75
2021/06/05 16:19:34;;;;;;;8.07;3.17;;;;;;;;;;4897395;29;20047;-78
2021/06/05 16:22:01;;;;;;;7.30;3.88;;;;;;;;;;4898234;29;20040;-74
2021/06/05 16:24:29;;;;;;;5.88;2.88;;;;;;;;;;4898022;29;20094;-78
2021/06/05 16:26:56;;;;;;;5.80;2.72;;;;;;;;;;4897600;29;20114;-70
2021/06/05 16:29:23;;;;;;;7.80;2.28;;;;;;;;;;4899213;29;20068;-65
2021/06/05 16:31:49;;;;;;;5.47;2.33;;;;;;;;;;4928100;29;20179;-66
2021/06/05 16:34:16;;;;;;;5.18;2.40;;;;;;;;;;4917230;29;20031;-64
2021/06/05 16:36:42;;;;;;;5.68;3.00;;;;;;;;;;4917405;29;20032;-73
2021/06/05 16:39:08;;;;;;;6.28;2.45;;;;;;;;;;4917341;29;20040;-63
2021/06/05 16:41:35;;;;;;;4.85;2.55;;;;;;;;;;4916770;29;20634;-64
2021/06/05 16:44:01;;;;;;;4.82;2.60;;;;;;;;;;4915818;29;20045;-69
2021/06/05 16:46:27;;;;;;;6.22;2.65;;;;;;;;;;4916211;29;20028;-65
2021/06/05 16:48:53;;;;;;;5.85;2.45;;;;;;;;;;4916309;29;20035;-65
2021/06/05 16:51:22;;;;;;;8.50;2.47;;;;;;;;;;4916421;29;20424;-64
2021/06/05 16:53:48;;;;;;;4.82;2.10;;;;;;;;;;4898978;29;20884;-69
2021/06/05 16:56:17;;;;;;;6.20;2.47;;;;;;;;;;4916682;29;20091;-71
2021/06/05 16:58:43;;;;;;;8.85;2.50;;;;;;;;;;4916387;29;20181;-78
2021/06/05 17:01:21;;;;;;;4.72;2.50;;;;;;;;;;4916151;29;20092;-67
2021/06/05 17:03:47;;;;;;;6.25;2.33;;;;;;;;;;4916035;29;20084;-67
2021/06/05 17:06:14;;;;;;;3.85;2.30;;;;;;;;;;4915921;29;20115;-66
2021/06/05 17:08:40;;;;;;;5.88;2.38;;;;;;;;;;4916342;29;20032;-69
2021/06/05 17:11:07;;;;;;;8.73;2.65;;;;;;;;;;4915945;29;20048;-72
2021/06/05 17:13:33;;;;;;;5.78;2.47;;;;;;;;;;4915873;29;20846;-62
2021/06/05 17:15:59;;;;;;;4.88;2.83;;;;;;;;;;4914821;29;20060;-61
2021/06/05 17:18:27;;;;;;;5.22;2.45;;;;;;;;;;4898597;29;20028;-69
2021/06/05 17:20:55;;;;;;;7.05;2.67;;;;;;;;;;4916128;29;20140;-75
2021/06/05 17:23:23;;;;;;;6.72;2.90;;;;;;;;;;4915521;29;20027;-69
2021/06/05 17:25:50;;;;;;;6.50;2.90;;;;;;;;;;4915843;29;20036;-68
2021/06/05 17:28:18;;;;;;;6.28;2.90;;;;;;;;;;4915465;29;20051;-68
2021/06/05 17:30:44;;;;;;;4.70;2.40;;;;;;;;;;4915725;29;20035;-64
2021/06/05 17:33:10;;;;;;;6.80;2.70;;;;;;;;;;4916089;29;20032;-69
2021/06/05 17:35:40;;;;;;;6.93;2.80;;;;;;;;;;4915280;29;20111;-73
2021/06/05 17:38:07;;;;;;;3.85;2.78;;;;;;;;;;4915674;29;20384;-75
2021/06/05 17:40:34;;;;;;;6.10;2.83;;;;;;;;;;4915590;29;20024;-65
2021/06/05 17:43:02;;;;;;;7.15;3.10;;;;;;;;;;4914978;29;20024;-65
2021/06/05 17:45:30;;;;;;;6.82;2.85;;;;;;;;;;4914984;29;20041;-67
2021/06/05 17:47:57;;;;;;;4.57;3.20;;;;;;;;;;4915369;29;20504;-73
2021/06/05 17:50:23;;;;;;;5.82;3.30;;;;;;;;;;4915147;29;20481;-68
2021/06/05 17:52:49;;;;;;;5.35;3.08;;;;;;;;;;4915138;29;20039;-73
2021/06/05 17:55:24;;;;;;;7.45;3.00;;;;;;;;;;4915443;29;20028;-65
2021/06/05 17:57:50;;;;;;;7.28;3.58;;;;;;;;;;4915032;29;20032;-67
2021/06/05 18:00:19;;;;;;;6.53;3.00;;;;;;;;;;4915187;29;20095;-66
2021/06/05 18:02:45;;;;;;;5.20;3.30;;;;;;;;;;4915184;29;20181;-72
2021/06/05 18:05:12;;;;;;;9.68;3.50;;;;;;;;;;4915508;29;20087;-68
2021/06/05 18:07:38;;;;;;;6.20;3.25;;;;;;;;;;4915108;29;20039;-75
2021/06/05 18:10:06;;;;;;;7.50;3.83;;;;;;;;;;4914607;29;20122;-66
2021/06/05 18:12:33;;;;;;;9.77;3.47;;;;;;;;;;4914779;29;20028;-71
2021/06/05 18:14:59;;;;;;;9.00;3.67;;;;;;;;;;4914392;29;20139;-71
2021/06/05 18:17:27;;;;;;;9.73;3.78;;;;;;;;;;4914711;29;20503;-71
2021/06/05 18:19:53;;;;;;;12.23;3.53;;;;;;;;;;4914510;29;20384;-72
2021/06/05 18:22:19;;;;;;;8.57;3.75;;;;;;;;;;4919756;29;20028;-76
2021/06/05 18:24:48;;;;;;;10.57;4.03;;;;;;;;;;4931063;29;20024;-74
2021/06/05 18:27:16;;;;;;;9.30;4.70;;;;;;;;;;4933232;29;20106;-62
2021/06/05 18:29:42;;;;;;;11.50;4.28;;;;;;;;;;4930621;29;20061;-73
2021/06/05 18:32:09;;;;;;;10.48;4.20;;;;;;;;;;4929609;29;20479;-72
2021/06/05 18:34:38;;;;;;;11.50;4.53;;;;;;;;;;4930676;29;20099;-64
2021/06/05 18:37:06;;;;;;;14.68;4.97;;;;;;;;;;4929421;29;20127;-65
2021/06/05 18:39:35;;;;;;;10.15;5.80;;;;;;;;;;4927770;29;20101;-69
2021/06/05 18:42:03;;;;;;;10.55;5.07;;;;;;;;;;4924652;29;20035;-72
2021/06/05 18:44:29;;;;;;;10.90;5.40;;;;;;;;;;4933018;29;20559;-72
2021/06/05 18:46:55;;;;;;;12.52;6.28;;;;;;;;;;4932753;29;20105;-68
2021/06/05 18:49:22;;;;;;;15.68;7.82;;;;;;;;;;4932973;29;20439;-77
2021/06/05 18:51:50;;;;;;;15.07;7.95;;;;;;;;;;4924475;29;20385;-69
2021/06/05 18:54:19;;;;;;;15.02;7.40;;;;;;;;;;4913677;29;20028;-71
2021/06/05 18:56:45;;;;;;;12.20;6.47;;;;;;;;;;4909928;29;20491;-61
2021/06/05 18:59:11;;;;;;;11.32;6.63;;;;;;;;;;4910423;29;20028;-69
2021/06/05 19:01:42;;;;;;;14.88;6.40;;;;;;;;;;4910113;29;20039;-66
2021/06/05 19:04:08;;;;;;;17.27;8.13;;;;;;;;;;4914364;29;20040;-64
2021/06/05 19:06:34;;;;;;;15.88;8.02;;;;;;;;;;4923549;29;20103;-69
2021/06/05 19:09:01;;;;;;;17.50;7.55;;;;;;;;;;4932847;29;20472;-71
2021/06/05 19:11:28;;;;;;;13.70;7.10;;;;;;;;;;4932807;29;20024;-73
2021/06/05 19:13:54;;;;;;;15.18;8.02;;;;;;;;;;4915077;29;20031;-64
2021/06/05 19:16:22;;;;;;;15.27;7.90;;;;;;;;;;4932905;29;20631;-68
2021/06/05 19:18:49;;;;;;;17.88;8.02;;;;;;;;;;4932688;29;20380;-68
2021/06/05 19:21:16;;;;;;;15.90;7.15;;;;;;;;;;4932825;29;20032;-71
2021/06/05 19:23:44;;;;;;;16.27;7.03;;;;;;;;;;4933151;29;20099;-69
2021/06/05 19:26:13;;;;;;;15.43;7.45;;;;;;;;;;4931715;29;20584;-73
2021/06/05 19:28:39;;;;;;;17.95;7.43;;;;;;;;;;4931754;29;20030;-72
2021/06/05 19:31:06;;;;;;;12.93;6.35;;;;;;;;;;4932300;29;20019;-69
2021/06/05 19:33:35;;;;;;;15.32;6.85;;;;;;;;;;4932756;29;20076;-73
2021/06/05 19:36:01;;;;;;;11.73;6.55;;;;;;;;;;4932558;29;20047;-67
2021/06/05 19:38:27;;;;;;;14.45;6.93;;;;;;;;;;4932864;29;20027;-73
2021/06/05 19:40:54;;;;;;;11.88;6.53;;;;;;;;;;4932534;29;20043;-72
2021/06/05 19:43:21;;;;;;;13.98;6.57;;;;;;;;;;4932744;29;20032;-66
2021/06/05 19:45:48;;;;;;;13.10;6.55;;;;;;;;;;4932301;29;20095;-71
2021/06/05 19:48:14;;;;;;;9.43;5.50;;;;;;;;;;4915064;29;20040;-67
2021/06/05 19:50:41;;;;;;;13.57;5.78;;;;;;;;;;4928681;29;20020;-71
2021/06/05 19:53:07;;;;;;;8.93;5.20;;;;;;;;;;4890232;29;20552;-72
2021/06/05 19:55:35;;;;;;;14.77;5.38;;;;;;;;;;4897559;29;20127;-69
2021/06/05 19:58:01;;;;;;;10.55;5.95;;;;;;;;;;4898228;29;20032;-76
2021/06/05 20:00:27;;;;;;;10.57;4.88;;;;;;;;;;4898355;29;20067;-65
2021/06/05 20:02:56;;;;;;;12.27;5.25;;;;;;;;;;4898108;29;20039;-73
2021/06/05 20:05:23;;;;;;;19.48;8.95;;;;;;;;;;4898129;29;20036;-74
2021/06/05 20:07:49;;;;;;;36.28;16.33;;;;;;;;;;4898141;29;20020;-71
2021/06/05 20:10:17;;;;;;;24.15;9.60;;;;;;;;;;4898084;29;20029;-74
2021/06/05 20:12:44;;;;;;;31.77;13.23;;;;;;;;;;4897818;29;20060;-71
2021/06/05 20:15:11;;;;;;;12.68;6.63;;;;;;;;;;4897439;29;20084;-73
2021/06/05 20:17:37;;;;;;;23.27;9.48;;;;;;;;;;4897910;29;20111;-73
2021/06/05 20:20:04;;;;;;;17.48;7.72;;;;;;;;;;4897812;29;20028;-69
2021/06/05 20:22:30;;;;;;;14.77;6.82;;;;;;;;;;4898012;29;20036;-67
2021/06/05 20:24:56;;;;;;;16.60;8.35;;;;;;;;;;4897695;29;20032;-70
2021/06/05 20:27:23;;;;;;;11.07;6.03;;;;;;;;;;4897831;29;20083;-68
2021/06/05 20:29:49;;;;;;;13.35;5.32;;;;;;;;;;4897766;29;20101;-67
2021/06/05 20:32:15;;;;;;;7.97;4.75;;;;;;;;;;4896750;29;20036;-68
2021/06/05 20:34:42;;;;;;;8.30;4.55;;;;;;;;;;4896784;29;20032;-67
2021/06/05 20:37:09;;;;;;;15.43;4.88;;;;;;;;;;4903888;29;20040;-72
2021/06/05 20:39:35;;;;;;;10.50;4.90;;;;;;;;;;4916625;29;20111;-73
2021/06/05 20:42:01;;;;;;;11.05;4.13;;;;;;;;;;4916151;29;20099;-71
2021/06/05 20:44:27;;;;;;;18.83;4.82;;;;;;;;;;4915855;29;20040;-66
2021/06/05 20:46:54;;;;;;;13.98;4.53;;;;;;;;;;4916110;29;20083;-66
2021/06/05 20:49:21;;;;;;;9.73;3.60;;;;;;;;;;4916700;29;20072;-66
2021/06/05 20:51:49;;;;;;;12.48;4.18;;;;;;;;;;4916271;29;20032;-66
2021/06/05 20:54:16;;;;;;;10.07;4.45;;;;;;;;;;4915798;29;20028;-67
2021/06/05 20:56:43;;;;;;;9.18;3.67;;;;;;;;;;4916022;29;20044;-74
2021/06/05 20:59:09;;;;;;;13.90;4.57;;;;;;;;;;4915781;29;20058;-70
2021/06/05 21:01:35;;;;;;;10.30;4.57;;;;;;;;;;4916146;29;20055;-66
2021/06/05 21:04:02;;;;;;;9.65;5.03;;;;;;;;;;4915562;29;20029;-74
2021/06/05 21:06:29;;;;;;;13.50;4.95;;;;;;;;;;4915595;29;20115;-69
2021/06/05 21:08:56;;;;;;;10.02;4.70;;;;;;;;;;4915769;29;20556;-67
2021/06/05 21:11:22;;;;;;;10.10;4.45;;;;;;;;;;4916049;29;20107;-69
2021/06/05 21:13:49;;;;;;;10.57;4.82;;;;;;;;;;4915127;29;20028;-71
2021/06/05 21:16:17;;;;;;;10.65;4.60;;;;;;;;;;4915232;29;20131;-70
2021/06/05 21:18:44;;;;;;;9.75;4.85;;;;;;;;;;4915462;29;20038;-73
2021/06/05 21:21:10;;;;;;;9.25;4.85;;;;;;;;;;4915954;29;20429;-71
2021/06/05 21:23:37;;;;;;;10.48;5.53;;;;;;;;;;4915519;29;20035;-66
2021/06/05 21:26:04;;;;;;;12.25;5.45;;;;;;;;;;4915623;29;20039;-67
2021/06/05 21:28:30;;;;;;;17.17;5.57;;;;;;;;;;4915477;29;20028;-75
2021/06/05 21:31:00;;;;;;;14.48;6.32;;;;;;;;;;4897857;29;20119;-73
2021/06/05 21:33:27;;;;;;;8.50;4.47;;;;;;;;;;4915532;29;20035;-66
2021/06/05 21:35:54;;;;;;;13.65;5.43;;;;;;;;;;4898299;29;20079;-66
2021/06/05 21:38:22;;;;;;;11.73;4.72;;;;;;;;;;4915127;29;20024;-69
2021/06/05 21:40:49;;;;;;;18.30;5.78;;;;;;;;;;4898328;29;20441;-69
2021/06/05 21:43:17;;;;;;;13.60;5.43;;;;;;;;;;4915145;29;20039;-71
2021/06/05 21:45:43;;;;;;;11.60;5.05;;;;;;;;;;4915007;29;20040;-66
2021/06/05 21:48:10;;;;;;;12.10;5.25;;;;;;;;;;4915065;29;20028;-70
2021/06/05 21:50:39;;;;;;;14.75;5.10;;;;;;;;;;4915622;29;20031;-66
2021/06/05 21:53:07;;;;;;;10.13;6.00;;;;;;;;;;4914984;29;20063;-65
2021/06/05 21:55:33;;;;;;;12.10;6.30;;;;;;;;;;4913996;29;20044;-65
2021/06/05 21:57:59;;;;;;;10.50;5.50;;;;;;;;;;4915280;29;20377;-67
2021/06/05 22:00:31;;;;;;;18.27;5.40;;;;;;;;;;4914842;29;20038;-67
2021/06/05 22:02:57;;;;;;;;;;;;;;;;;;4914043;29;20040;-67
2021/06/05 22:05:23;;;;;;;17.75;5.03;;;;;;;;;;4912755;29;19966;-68
2021/06/05 22:07:49;;;;;;;14.73;4.72;;;;;;;;;;4914463;29;20050;-68
2021/06/05 22:10:15;;;;;;;10.73;4.82;;;;;;;;;;4897838;29;20032;-66
2021/06/05 22:12:42;;;;;;;10.75;4.80;;;;;;;;;;4897773;29;20040;-64
2021/06/05 22:15:08;;;;;;;11.65;5.00;;;;;;;;;;4914116;29;20052;-64
2021/06/05 22:17:34;;;;;;;10.13;5.03;;;;;;;;;;4914050;29;20039;-65
2021/06/05 22:20:01;;;;;;;12.73;4.93;;;;;;;;;;4914816;29;20039;-66
2021/06/05 22:22:31;;;;;;;11.80;5.30;;;;;;;;;;4914778;29;20064;-66
2021/06/05 22:24:59;;;;;;;8.35;4.78;;;;;;;;;;4914547;29;20070;-67
2021/06/05 22:27:33;;;;;;;12.60;4.78;;;;;;;;;;4914813;29;20496;-63
2021/06/05 22:29:59;;;;;;;13.68;6.88;;;;;;;;;;4914456;29;20379;-64
2021/06/05 22:32:25;;;;;;;16.08;7.43;;;;;;;;;;4914591;29;20107;-64
2021/06/05 22:34:51;;;;;;;11.27;6.15;;;;;;;;;;4914427;29;20039;-66
2021/06/05 22:37:17;;;;;;;15.00;5.38;;;;;;;;;;4897151;29;20104;-65
2021/06/05 22:39:44;;;;;;;11.98;4.97;;;;;;;;;;4914155;29;20059;-66
2021/06/05 22:42:10;;;;;;;10.40;4.88;;;;;;;;;;4914473;29;20136;-69
2021/06/05 22:44:36;;;;;;;11.27;5.20;;;;;;;;;;4913855;29;20036;-64
2021/06/05 22:47:02;;;;;;;9.75;4.80;;;;;;;;;;4914212;29;20035;-64
2021/06/05 22:49:28;;;;;;;11.35;5.40;;;;;;;;;;4913922;29;20028;-65
2021/06/05 22:51:54;;;;;;;8.30;4.97;;;;;;;;;;4914301;29;20032;-64
2021/06/05 22:54:21;;;;;;;10.32;4.88;;;;;;;;;;4913945;29;20029;-64
2021/06/05 22:56:48;;;;;;;7.75;4.60;;;;;;;;;;4914113;29;20084;-67
2021/06/05 22:59:14;;;;;;;9.15;4.82;;;;;;;;;;4913879;29;20492;-65
2021/06/05 23:01:42;;;;;;;9.52;5.00;;;;;;;;;;4913679;29;20051;-65
2021/06/05 23:04:08;;;;;;;10.50;5.10;;;;;;;;;;4913892;29;20472;-64
2021/06/05 23:06:34;;;;;;;8.95;4.40;;;;;;;;;;4914058;29;20036;-66
2021/06/05 23:09:01;;;;;;;11.95;4.43;;;;;;;;;;4913984;29;20404;-66
2021/06/05 23:11:29;;;;;;;9.18;5.25;;;;;;;;;;4913721;29;20040;-66
2021/06/05 23:13:56;;;;;;;8.85;4.72;;;;;;;;;;4913565;29;20124;-66
2021/06/05 23:16:22;;;;;;;12.52;5.55;;;;;;;;;;4913469;29;20064;-66
2021/06/05 23:18:48;;;;;;;12.32;4.70;;;;;;;;;;4913965;29;20041;-64
2021/06/05 23:21:16;;;;;;;9.90;5.05;;;;;;;;;;4913925;29;20032;-64
2021/06/05 23:23:43;;;;;;;10.57;5.30;;;;;;;;;;4913761;29;20039;-65
2021/06/05 23:26:10;;;;;;;12.02;5.18;;;;;;;;;;4914037;29;20107;-64
2021/06/05 23:28:36;;;;;;;8.35;5.10;;;;;;;;;;4914989;29;20472;-64
2021/06/05 23:31:03;;;;;;;10.75;5.63;;;;;;;;;;4917541;29;20038;-64
2021/06/05 23:33:30;;;;;;;10.63;5.00;;;;;;;;;;4917160;29;20203;-65
2021/06/05 23:35:58;;;;;;;9.40;5.43;;;;;;;;;;4917312;29;20076;-64
2021/06/05 23:38:26;;;;;;;11.77;5.70;;;;;;;;;;4917122;29;20028;-65
2021/06/05 23:40:53;;;;;;;10.32;4.82;;;;;;;;;;4917448;29;20554;-64
2021/06/05 23:43:19;;;;;;;6.97;4.07;;;;;;;;;;4917277;29;20114;-63
2021/06/05 23:45:47;;;;;;;6.90;3.92;;;;;;;;;;4916902;29;20492;-64
2021/06/05 23:48:14;;;;;;;8.38;4.13;;;;;;;;;;4917235;29;20036;-64
2021/06/05 23:50:40;;;;;;;7.40;3.72;;;;;;;;;;4917079;29;20035;-64
2021/06/05 23:53:07;;;;;;;7.40;3.67;;;;;;;;;;4917223;29;20462;-64
2021/06/05 23:55:35;;;;;;;7.47;3.42;;;;;;;;;;4917175;29;20040;-68
2021/06/05 23:58:01;;;;;;;8.73;4.15;;;;;;;;;;4917350;29;20076;-69
